Ifestos 3 — SW7225 — position and weather

sailwx.info

Track history (hours):
 
Tides and Currents Weather Stations Pressure Air Temp Water Temp Dewpoint Dewpoint Depression Visibility Wind Speed Wind Dir Waves Ship Positions

Ifestos 3

Last reported at 2017-Sep-20 21:00 UTC. Time now 2017-Sep-20 23:54 UTC.
Position N 37°57' E 023°37'.

Length 30 m; draft 2.9 m.

Type: Tug. MMSI: 240612000.

Date/timePositionNaut miles runAvg speedWind from/ knotsBaromVisibWave heightAir tempDewpointWater temp
2017-Sep-20 21:00N 37°57' E 023°37'0 0.0
2017-Sep-20 20:30N 37°57' E 023°37'0 0.0
2017-Sep-20 20:00N 37°57' E 023°37'0 0.0
2017-Sep-20 19:30N 37°57' E 023°37'0 0.0
2017-Sep-20 19:00N 37°57' E 023°37'0 0.0
2017-Sep-20 18:30N 37°57' E 023°37'0 0.0
2017-Sep-20 18:00N 37°57' E 023°37'0 0.0
2017-Sep-20 17:31N 37°57' E 023°37'0 0.0
2017-Sep-20 17:00N 37°57' E 023°37'0 0.0
2017-Sep-20 16:30N 37°57' E 023°37'0 0.0
2017-Sep-20 16:01N 37°57' E 023°37'0 0.0
2017-Sep-20 15:30N 37°57' E 023°37'0 0.0
2017-Sep-20 15:00N 37°57' E 023°37'0 0.0
2017-Sep-20 14:01N 37°57' E 023°37'0 0.0
2017-Sep-20 13:30N 37°57' E 023°37'0 0.0
2017-Sep-20 13:01N 37°57' E 023°37'0 0.0
2017-Sep-20 12:31N 37°57' E 023°37'0 0.0
2017-Sep-20 12:00N 37°57' E 023°37'0 0.0
2017-Sep-20 11:30N 37°57' E 023°37'0 0.0
2017-Sep-20 11:00N 37°57' E 023°37'0 0.0
2017-Sep-20 10:30N 37°57' E 023°37'0 0.0
2017-Sep-20 10:00N 37°57' E 023°37'0 0.0
2017-Sep-20 09:31N 37°57' E 023°37'0 0.0
2017-Sep-20 09:00N 37°57' E 023°37'0 0.0
2017-Sep-20 08:30N 37°57' E 023°37'0 0.0
2017-Sep-20 08:00N 37°57' E 023°37'0 0.0
2017-Sep-20 07:31N 37°57' E 023°37'0 0.0
2017-Sep-20 07:00N 37°57' E 023°37'0 0.0
2017-Sep-20 06:30N 37°57' E 023°37'0 0.0
2017-Sep-20 06:00N 37°57' E 023°37'0 0.0
2017-Sep-20 05:30N 37°57' E 023°37'0 0.0
2017-Sep-20 05:00N 37°57' E 023°37'0 0.0
2017-Sep-20 04:30N 37°57' E 023°37'0 0.0
2017-Sep-20 04:01N 37°57' E 023°37'0 0.0
2017-Sep-20 03:31N 37°57' E 023°37'0 0.0
2017-Sep-20 03:00N 37°57' E 023°37'0 0.0
2017-Sep-20 02:30N 37°57' E 023°37'0 0.0
2017-Sep-20 02:00N 37°57' E 023°37'0 0.0
2017-Sep-20 01:30N 37°57' E 023°37'0 0.0
2017-Sep-20 01:00N 37°57' E 023°37'0 0.0
2017-Sep-20 00:30N 37°57' E 023°37'0 0.0
2017-Sep-20 00:01N 37°57' E 023°37'0 0.0
2017-Sep-19 23:30N 37°57' E 023°37'0 0.0
2017-Sep-19 23:01N 37°57' E 023°37'0 0.0
2017-Sep-19 22:30N 37°57' E 023°37'0 0.0
2017-Sep-19 22:00N 37°57' E 023°37'0 0.0
2017-Sep-19 21:30N 37°57' E 023°37'0 0.0
2017-Sep-19 21:00N 37°57' E 023°37'0 0.0
2017-Sep-19 20:30N 37°57' E 023°37'0 0.0
2017-Sep-19 20:01N 37°57' E 023°37'0 0.0
2017-Sep-19 19:30N 37°57' E 023°37'0 0.0
2017-Sep-19 19:00N 37°57' E 023°37'0 0.8
2017-Sep-19 18:31N 37°57' E 023°36'0 0.6
2017-Sep-19 18:01N 37°57' E 023°36'1 1.6
2017-Sep-19 17:30N 37°57' E 023°36'1 1.3
2017-Sep-19 17:00N 37°57' E 023°36'0 0.9
2017-Sep-19 16:30N 37°57' E 023°37'0 0.0
2017-Sep-19 16:00N 37°57' E 023°37'0 0.0
2017-Sep-19 15:30N 37°57' E 023°37'0 0.0
2017-Sep-19 15:00N 37°57' E 023°37'0 0.0
2017-Sep-19 14:30N 37°57' E 023°37'0 0.0
2017-Sep-19 14:00N 37°57' E 023°37'0 0.0
2017-Sep-19 13:30N 37°57' E 023°37'0 0.0
2017-Sep-19 13:00N 37°57' E 023°37'0 0.0
2017-Sep-19 12:30N 37°57' E 023°37'1 1.2
2017-Sep-19 12:00N 37°57' E 023°36'1 1.1
2017-Sep-19 11:30N 37°57' E 023°35'2 3.8
2017-Sep-19 11:00N 37°58' E 023°33'2 3.8
2017-Sep-19 10:30N 37°60' E 023°34'0 0.4
2017-Sep-19 10:00N 37°60' E 023°34'1 2.1
2017-Sep-19 09:29N 38°01' E 023°33'2 3.4
2017-Sep-19 09:00N 38°02' E 023°32'0 0.0
2017-Sep-19 08:31N 38°02' E 023°32'0 0.8
2017-Sep-19 08:00N 38°02' E 023°32'510.3
2017-Sep-19 07:30N 37°57' E 023°34'2 4.3
2017-Sep-19 07:00N 37°57' E 023°37'0 0.0
2017-Sep-19 06:30N 37°57' E 023°37'1 1.7
2017-Sep-19 06:00N 37°57' E 023°36'1 2.3
2017-Sep-19 05:30N 37°56' E 023°36'2 3.3
2017-Sep-19 05:00N 37°57' E 023°37'0 0.0
2017-Sep-19 04:30N 37°57' E 023°37'0 0.0
2017-Sep-19 04:00N 37°57' E 023°37'0 0.0
2017-Sep-19 03:30N 37°57' E 023°37'0 0.0
2017-Sep-19 03:00N 37°57' E 023°37'0 0.0
2017-Sep-19 02:30N 37°57' E 023°37'0 0.0
2017-Sep-19 02:00N 37°57' E 023°37'0 0.0
2017-Sep-19 01:31N 37°57' E 023°37'0 0.0
2017-Sep-19 01:01N 37°57' E 023°37'0 0.0
2017-Sep-19 00:30N 37°57' E 023°37'0 0.0
2017-Sep-19 00:00N 37°57' E 023°37'0 0.0
2017-Sep-18 23:30N 37°57' E 023°37'0 0.0
2017-Sep-18 23:00N 37°57' E 023°37'0 0.0
2017-Sep-18 22:30N 37°57' E 023°37'0 0.0
2017-Sep-18 22:00N 37°57' E 023°37'0 0.0
2017-Sep-18 21:30N 37°57' E 023°37'0 0.0
2017-Sep-18 21:00N 37°57' E 023°37'0 0.0
2017-Sep-18 20:31N 37°57' E 023°37'0 0.0
2017-Sep-18 20:00N 37°57' E 023°37'0 0.0
2017-Sep-18 19:30N 37°57' E 023°37'0 0.0
2017-Sep-18 19:00N 37°57' E 023°37'0 0.0
2017-Sep-18 18:31N 37°57' E 023°37'0 0.0
2017-Sep-18 18:00N 37°57' E 023°37'0 0.0
2017-Sep-18 17:30N 37°57' E 023°37'0 0.0
2017-Sep-18 17:00N 37°57' E 023°37'0 0.0
2017-Sep-18 16:30N 37°57' E 023°37'0 0.0
2017-Sep-18 16:00N 37°57' E 023°37'0 0.0
2017-Sep-18 15:31N 37°57' E 023°37'0 0.0
2017-Sep-18 15:00N 37°57' E 023°37'0 0.0
2017-Sep-18 14:31N 37°57' E 023°37'0 0.0
2017-Sep-18 14:00N 37°57' E 023°37'0 0.0
2017-Sep-18 13:30N 37°57' E 023°37'0 0.0
2017-Sep-18 13:00N 37°57' E 023°37'0 0.0
2017-Sep-18 12:30N 37°57' E 023°37'0 0.0
2017-Sep-18 12:00N 37°57' E 023°37'0 0.0
2017-Sep-18 11:30N 37°57' E 023°37'0 0.6
2017-Sep-18 11:00N 37°57' E 023°36'0 1.0
2017-Sep-18 10:30N 37°57' E 023°36'0 0.4
2017-Sep-18 10:01N 37°57' E 023°36'1 1.1
2017-Sep-18 09:30N 37°57' E 023°37'0 0.0
2017-Sep-18 09:00N 37°57' E 023°37'0 0.0
2017-Sep-18 08:30N 37°57' E 023°37'0 0.0
2017-Sep-18 08:01N 37°57' E 023°37'0 0.0
2017-Sep-18 07:30N 37°57' E 023°37'0 0.0
2017-Sep-18 07:00N 37°57' E 023°37'0 0.0
2017-Sep-18 06:30N 37°57' E 023°37'0 0.0
2017-Sep-18 06:00N 37°57' E 023°37'0 0.6
2017-Sep-18 05:30N 37°58' E 023°36'0 0.8
2017-Sep-18 05:00N 37°57' E 023°36'1 2.0
2017-Sep-18 04:30N 37°56' E 023°36'1 2.6
2017-Sep-18 04:01N 37°57' E 023°37'0 0.0
2017-Sep-18 03:30N 37°57' E 023°37'0 0.0
2017-Sep-18 03:00N 37°57' E 023°37'0 0.0
2017-Sep-18 02:30N 37°57' E 023°37'0 0.0
2017-Sep-18 02:00N 37°57' E 023°37'0 0.0
2017-Sep-18 01:30N 37°57' E 023°37'0 0.0
2017-Sep-18 01:00N 37°57' E 023°37'0 0.0
2017-Sep-18 00:30N 37°57' E 023°37'0 0.0
2017-Sep-18 00:00N 37°57' E 023°37'0 0.0
2017-Sep-17 23:30N 37°57' E 023°37'0 0.0
2017-Sep-17 23:00N 37°57' E 023°37'0 0.0
2017-Sep-17 22:31N 37°57' E 023°37'0 0.0
2017-Sep-17 22:00N 37°57' E 023°37'0 0.0
2017-Sep-17 21:30N 37°57' E 023°37'0 0.0
2017-Sep-17 21:00N 37°57' E 023°37'0 0.0
2017-Sep-17 20:30N 37°57' E 023°37'0 0.0
2017-Sep-17 20:00N 37°57' E 023°37'0 0.0
2017-Sep-17 19:30N 37°57' E 023°37'0 0.0
2017-Sep-17 19:01N 37°57' E 023°37'0 0.0
2017-Sep-17 18:30N 37°57' E 023°37'0 0.0
2017-Sep-17 18:01N 37°57' E 023°37'0 0.0
2017-Sep-17 17:30N 37°57' E 023°37'0 0.0
2017-Sep-17 17:00N 37°57' E 023°37'3 5.3
2017-Sep-17 16:30N 37°57' E 023°33'4 8.8
2017-Sep-17 16:00N 38°02' E 023°36'0 0.5
2017-Sep-17 15:30N 38°01' E 023°35'3 6.3
2017-Sep-17 15:00N 37°59' E 023°33'2 3.1
2017-Sep-17 14:30N 37°58' E 023°34'0 0.0
2017-Sep-17 14:00N 37°58' E 023°34'0 0.0
2017-Sep-17 13:31N 37°58' E 023°34'0 0.0
2017-Sep-17 13:00N 37°58' E 023°34'0 0.0
2017-Sep-17 12:31N 37°58' E 023°34'0 0.0
2017-Sep-17 12:00N 37°58' E 023°34'1 2.1
2017-Sep-17 11:30N 37°57' E 023°35'1 2.7
2017-Sep-17 11:01N 37°57' E 023°37'0 0.0
2017-Sep-17 10:31N 37°57' E 023°37'0 0.0
2017-Sep-17 10:00N 37°57' E 023°37'1 2.2
2017-Sep-17 09:30N 37°57' E 023°35'1 1.2
2017-Sep-17 09:00N 37°57' E 023°36'1 1.3
2017-Sep-17 08:30N 37°57' E 023°36'1 1.4
2017-Sep-17 08:00N 37°57' E 023°37'0 0.0
2017-Sep-17 07:31N 37°57' E 023°37'0 0.0
2017-Sep-17 07:00N 37°57' E 023°37'0 0.0
2017-Sep-17 06:30N 37°57' E 023°37'0 0.0
2017-Sep-17 06:00N 37°57' E 023°37'1 1.0
2017-Sep-17 05:30N 37°57' E 023°36'1 1.6
2017-Sep-17 05:01N 37°57' E 023°36'0 1.0
2017-Sep-17 04:30N 37°56' E 023°36'1 1.9
2017-Sep-17 04:00N 37°57' E 023°36'0 0.9
2017-Sep-17 03:30N 37°57' E 023°36'0 0.4
2017-Sep-17 03:00N 37°57' E 023°37'0 0.0
2017-Sep-17 02:30N 37°57' E 023°37'0 0.0
2017-Sep-17 02:00N 37°57' E 023°37'0 0.0
2017-Sep-17 01:30N 37°57' E 023°37'0 0.0
2017-Sep-17 01:00N 37°57' E 023°37'0 0.0
2017-Sep-17 00:30N 37°57' E 023°37'0 0.0
2017-Sep-17 00:00N 37°57' E 023°37'0 0.0
2017-Sep-16 23:31N 37°57' E 023°37'0 0.0
2017-Sep-16 23:01N 37°57' E 023°37'0 0.0
2017-Sep-16 22:30N 37°57' E 023°37'0 0.0
2017-Sep-16 22:01N 37°57' E 023°37'0 0.0
2017-Sep-16 21:30N 37°57' E 023°37'0 0.0
2017-Sep-16 21:01N 37°57' E 023°37'0 0.0
2017-Sep-16 20:31N 37°57' E 023°37'0 0.0
2017-Sep-16 20:00N 37°57' E 023°37'0 0.0
2017-Sep-16 19:31N 37°57' E 023°37'0 0.0
2017-Sep-16 19:00N 37°57' E 023°37'0 0.0
2017-Sep-16 18:30N 37°57' E 023°37'0 0.0
2017-Sep-16 18:00N 37°57' E 023°37'0 0.0
2017-Sep-16 17:30N 37°57' E 023°37'0 0.0
2017-Sep-16 17:01N 37°57' E 023°37'0 0.0
2017-Sep-16 16:31N 37°57' E 023°37'0 0.0
2017-Sep-16 16:00N 37°57' E 023°37'0 0.0
2017-Sep-16 15:30N 37°57' E 023°37'0 0.0
2017-Sep-16 15:01N 37°57' E 023°37'0 0.0
2017-Sep-16 14:30N 37°57' E 023°37'0 0.0
2017-Sep-16 14:01N 37°57' E 023°37'0 0.0
2017-Sep-16 13:30N 37°57' E 023°37'0 0.0
2017-Sep-16 13:00N 37°57' E 023°37'0 0.0
2017-Sep-16 12:30N 37°57' E 023°37'0 0.0
2017-Sep-16 12:00N 37°57' E 023°37'0 0.0
2017-Sep-16 11:30N 37°57' E 023°37'0 0.0
2017-Sep-16 11:00N 37°57' E 023°37'0 0.0
2017-Sep-16 10:30N 37°57' E 023°37'0 0.0
2017-Sep-16 10:01N 37°57' E 023°37'0 0.0
2017-Sep-16 09:31N 37°57' E 023°37'0 0.0
2017-Sep-16 09:00N 37°57' E 023°37'0 0.0
2017-Sep-16 08:30N 37°57' E 023°37'0 0.0
2017-Sep-16 08:00N 37°57' E 023°37'0 0.0
2017-Sep-16 07:30N 37°57' E 023°37'0 0.0
2017-Sep-16 07:01N 37°57' E 023°37'0 0.0
2017-Sep-16 06:30N 37°57' E 023°37'0 0.0
2017-Sep-16 06:00N 37°57' E 023°37'0 0.0
2017-Sep-16 05:31N 37°57' E 023°37'0 0.0
2017-Sep-16 05:01N 37°57' E 023°37'0 0.0
2017-Sep-16 04:30N 37°57' E 023°37'0 0.0
2017-Sep-16 04:00N 37°57' E 023°37'0 0.0
2017-Sep-16 03:30N 37°57' E 023°37'0 0.0
2017-Sep-16 03:00N 37°57' E 023°37'0 0.0
2017-Sep-16 02:31N 37°57' E 023°37'0 0.0
2017-Sep-16 02:00N 37°57' E 023°37'0 0.0
2017-Sep-16 01:30N 37°57' E 023°37'0 0.0
2017-Sep-16 01:00N 37°57' E 023°37'0 0.0
2017-Sep-16 00:30N 37°57' E 023°37'0 0.0
2017-Sep-16 00:00N 37°57' E 023°37'0 0.0
2017-Sep-15 23:31N 37°57' E 023°37'0 0.0
2017-Sep-15 23:00N 37°57' E 023°37'0 0.0
2017-Sep-15 22:30N 37°57' E 023°37'0 0.0
2017-Sep-15 22:00N 37°57' E 023°37'0 0.0
2017-Sep-15 21:30N 37°57' E 023°37'0 0.0
2017-Sep-15 21:00N 37°57' E 023°37'0 0.0
2017-Sep-15 20:31N 37°57' E 023°37'0 0.0
2017-Sep-15 20:01N 37°57' E 023°37'0 0.0
2017-Sep-15 19:30N 37°57' E 023°37'0 0.0
2017-Sep-15 19:00N 37°57' E 023°37'0 0.0
2017-Sep-15 18:30N 37°57' E 023°37'0 0.0
2017-Sep-15 18:00N 37°57' E 023°37'0 0.0
2017-Sep-15 17:30N 37°57' E 023°37'0 0.0
2017-Sep-15 17:00N 37°57' E 023°37'0 0.0
2017-Sep-15 16:30N 37°57' E 023°37'0 0.0
2017-Sep-15 16:00N 37°57' E 023°37'0 0.0
2017-Sep-15 15:30N 37°57' E 023°37'0 0.0
2017-Sep-15 15:00N 37°57' E 023°37'0 0.0
2017-Sep-15 14:31N 37°57' E 023°37'0 0.0
2017-Sep-15 14:00N 37°57' E 023°37'0 0.0
2017-Sep-15 13:31N 37°57' E 023°37'0 0.0
2017-Sep-15 13:00N 37°57' E 023°37'0 0.0
2017-Sep-15 12:30N 37°57' E 023°37'0 0.0
2017-Sep-15 12:00N 37°57' E 023°37'0 0.0
2017-Sep-15 11:30N 37°57' E 023°37'1 1.3
2017-Sep-15 11:00N 37°57' E 023°36'1 1.4
2017-Sep-15 10:30N 37°57' E 023°37'0 0.0
2017-Sep-15 10:01N 37°57' E 023°37'0 0.0
2017-Sep-15 09:30N 37°57' E 023°37'0 0.0
2017-Sep-15 09:01N 37°57' E 023°37'0 0.0
2017-Sep-15 08:31N 37°57' E 023°37'0 0.0
2017-Sep-15 08:00N 37°57' E 023°37'0 0.0
2017-Sep-15 07:30N 37°57' E 023°37'0 0.0
2017-Sep-15 07:00N 37°57' E 023°37'0 0.0
2017-Sep-15 06:30N 37°57' E 023°37'0 0.0
2017-Sep-15 06:01N 37°57' E 023°37'1 2.5
2017-Sep-15 05:31N 37°57' E 023°35'2 3.2
2017-Sep-15 05:01N 37°56' E 023°36'2 3.2
2017-Sep-15 04:30N 37°57' E 023°36'0 0.5
2017-Sep-15 04:00N 37°57' E 023°36'1 1.2
2017-Sep-15 03:30N 37°57' E 023°37'0 0.0
2017-Sep-15 03:01N 37°57' E 023°37'0 0.0
2017-Sep-15 02:30N 37°57' E 023°37'0 0.0
2017-Sep-15 02:00N 37°57' E 023°37'0 0.0
2017-Sep-15 01:31N 37°57' E 023°37'0 0.0
2017-Sep-15 01:00N 37°57' E 023°37'0 0.0
2017-Sep-15 00:30N 37°57' E 023°37'0 0.0
2017-Sep-15 00:00N 37°57' E 023°37'0 0.0
2017-Sep-14 23:30N 37°57' E 023°37'0 0.0
2017-Sep-14 23:00N 37°57' E 023°37'0 0.0
2017-Sep-14 22:30N 37°57' E 023°37'0 0.0
2017-Sep-14 22:00N 37°57' E 023°37'0 0.0
2017-Sep-14 21:31N 37°57' E 023°37'0 0.0
2017-Sep-14 21:00N 37°57' E 023°37'0 0.0
2017-Sep-14 20:30N 37°57' E 023°37'0 0.0
2017-Sep-14 20:00N 37°57' E 023°37'0 0.0
2017-Sep-14 19:30N 37°57' E 023°37'0 0.0
2017-Sep-14 19:01N 37°57' E 023°37'0 0.0
2017-Sep-14 18:30N 37°57' E 023°37'0 0.0
2017-Sep-14 18:01N 37°57' E 023°37'0 0.0
2017-Sep-14 17:30N 37°57' E 023°37'0 0.0
2017-Sep-14 17:00N 37°57' E 023°37'0 0.0
2017-Sep-14 16:31N 37°57' E 023°37'0 0.0
2017-Sep-14 16:01N 37°57' E 023°37'2 3.4
2017-Sep-14 15:30N 37°57' E 023°34'3 5.4
2017-Sep-14 15:00N 37°60' E 023°33'3 5.3
2017-Sep-14 14:30N 38°02' E 023°36'0 0.4
2017-Sep-14 14:00N 38°01' E 023°36'0 0.0
2017-Sep-14 13:30N 38°01' E 023°36'0 0.0
2017-Sep-14 13:00N 38°01' E 023°36'0 0.0
2017-Sep-14 12:30N 38°01' E 023°36'0 0.0
2017-Sep-14 12:00N 38°01' E 023°36'0 0.0
2017-Sep-14 11:30N 38°01' E 023°36'0 0.0
2017-Sep-14 11:01N 38°01' E 023°36'0 0.0
2017-Sep-14 10:30N 38°01' E 023°36'0 0.0
2017-Sep-14 10:01N 38°01' E 023°36'0 0.0
2017-Sep-14 09:30N 38°01' E 023°36'0 0.0
2017-Sep-14 09:00N 38°01' E 023°36'0 0.0
2017-Sep-14 08:30N 38°01' E 023°36'0 0.0
2017-Sep-14 08:00N 38°01' E 023°36'0 0.0
2017-Sep-14 07:31N 38°01' E 023°36'0 0.0
2017-Sep-14 07:00N 38°01' E 023°36'0 0.0
2017-Sep-14 06:30N 38°01' E 023°36'0 0.0
2017-Sep-14 06:00N 38°01' E 023°36'0 0.0
2017-Sep-14 05:31N 38°01' E 023°36'0 0.0
2017-Sep-14 05:01N 38°01' E 023°36'0 0.0
2017-Sep-14 04:31N 38°01' E 023°36'0 0.0
2017-Sep-14 04:00N 38°01' E 023°36'0 0.0
2017-Sep-14 03:31N 38°01' E 023°36'0 0.0
2017-Sep-14 03:01N 38°01' E 023°36'0 0.0
2017-Sep-14 02:30N 38°01' E 023°36'0 0.0
2017-Sep-14 02:01N 38°01' E 023°36'0 0.0
2017-Sep-14 01:31N 38°01' E 023°36'0 0.0
2017-Sep-14 01:00N 38°01' E 023°36'0 0.0
2017-Sep-14 00:31N 38°01' E 023°36'0 0.0
2017-Sep-14 00:01N 38°01' E 023°36'0 0.0
2017-Sep-13 23:30N 38°01' E 023°36'0 0.0
2017-Sep-13 23:00N 38°01' E 023°36'0 0.0
2017-Sep-13 22:30N 38°01' E 023°36'0 0.0
2017-Sep-13 22:00N 38°01' E 023°36'0 0.0
2017-Sep-13 21:31N 38°01' E 023°36'0 0.0
2017-Sep-13 21:01N 38°01' E 023°36'0 0.0
2017-Sep-13 20:30N 38°01' E 023°36'0 0.0
2017-Sep-13 20:00N 38°01' E 023°36'0 0.0
2017-Sep-13 19:28N 38°01' E 023°36'0 0.0
2017-Sep-13 18:55N 38°01' E 023°36'0 0.0
2017-Sep-13 18:30N 38°01' E 023°36'0 0.0
2017-Sep-13 18:01N 38°01' E 023°36'0 0.0
2017-Sep-13 17:30N 38°01' E 023°36'0 0.0
2017-Sep-13 17:01N 38°01' E 023°36'0 0.0
2017-Sep-13 16:30N 38°01' E 023°36'0 0.0
2017-Sep-13 16:00N 38°01' E 023°36'0 0.0
2017-Sep-13 15:31N 38°01' E 023°36'0 0.0
2017-Sep-13 15:01N 38°01' E 023°36'0 0.0
2017-Sep-13 14:31N 38°01' E 023°36'0 0.0
2017-Sep-13 14:01N 38°01' E 023°36'0 0.0
2017-Sep-13 13:30N 38°01' E 023°36'0 0.0
2017-Sep-13 13:01N 38°01' E 023°36'0 0.0
2017-Sep-13 12:31N 38°01' E 023°36'0 0.0
2017-Sep-13 12:00N 38°01' E 023°36'1 2.3
2017-Sep-13 11:31N 38°01' E 023°34'1 2.1
2017-Sep-13 11:00N 37°60' E 023°34'0 0.0
2017-Sep-13 10:31N 37°60' E 023°34'0 0.6
2017-Sep-13 10:01N 37°60' E 023°33'2 4.9
2017-Sep-13 09:31N 38°02' E 023°32'3 5.6
2017-Sep-13 09:01N 38°01' E 023°36'0 0.1
2017-Sep-13 08:30N 38°01' E 023°36'0 0.1
2017-Sep-13 06:37N 38°01' E 023°36'0 0.0
2017-Sep-13 06:22N 38°01' E 023°36'0 0.0
2017-Sep-13 06:01N 38°01' E 023°36'0 0.0
2017-Sep-13 05:30N 38°01' E 023°36'0 0.0
2017-Sep-13 05:01N 38°01' E 023°36'0 0.0
2017-Sep-13 04:30N 38°01' E 023°36'0 0.0
2017-Sep-13 04:01N 38°01' E 023°36'0 0.0
2017-Sep-13 03:30N 38°01' E 023°36'0 0.0
2017-Sep-13 03:00N 38°01' E 023°36'0 0.0
2017-Sep-13 02:30N 38°01' E 023°36'0 0.0
2017-Sep-13 02:00N 38°01' E 023°36'0 0.0
2017-Sep-13 01:30N 38°01' E 023°36'0 0.0
2017-Sep-13 01:00N 38°01' E 023°36'0 0.0
2017-Sep-13 00:30N 38°01' E 023°36'0 0.0
2017-Sep-13 00:01N 38°01' E 023°36'0 0.0
2017-Sep-12 23:30N 38°01' E 023°36'0 0.0
2017-Sep-12 23:00N 38°01' E 023°36'0 0.0
2017-Sep-12 22:30N 38°01' E 023°36'0 0.0
2017-Sep-12 22:01N 38°01' E 023°36'0 0.0
2017-Sep-12 21:31N 38°01' E 023°36'0 0.0
2017-Sep-12 21:01N 38°01' E 023°36'0 0.0
2017-Sep-12 20:31N 38°01' E 023°36'0 0.0
2017-Sep-12 20:01N 38°01' E 023°36'0 0.0
2017-Sep-12 19:30N 38°01' E 023°36'0 0.0
2017-Sep-12 19:00N 38°01' E 023°36'0 0.0
2017-Sep-12 18:30N 38°01' E 023°36'0 0.0
2017-Sep-12 18:01N 38°01' E 023°36'0 0.0
2017-Sep-12 17:31N 38°01' E 023°36'0 0.0
2017-Sep-12 17:00N 38°01' E 023°36'0 0.0
2017-Sep-12 16:31N 38°01' E 023°36'0 0.0
2017-Sep-12 16:00N 38°01' E 023°36'0 0.0
2017-Sep-12 15:30N 38°01' E 023°36'0 0.2
2017-Sep-12 15:01N 38°01' E 023°36'1 1.5
2017-Sep-12 14:30N 38°01' E 023°35'4 7.3
2017-Sep-12 14:00N 37°58' E 023°33'3 5.7
2017-Sep-12 13:30N 37°57' E 023°37'0 0.0
2017-Sep-12 13:00N 37°57' E 023°37'0 0.0
2017-Sep-12 12:30N 37°57' E 023°37'0 0.0
2017-Sep-12 12:00N 37°57' E 023°37'0 0.0
2017-Sep-12 11:30N 37°57' E 023°37'0 0.0
2017-Sep-12 11:01N 37°57' E 023°37'0 0.0
2017-Sep-12 10:30N 37°57' E 023°37'0 0.0
2017-Sep-12 10:01N 37°57' E 023°37'0 0.0
2017-Sep-12 09:31N 37°57' E 023°37'0 0.0
2017-Sep-12 09:01N 37°57' E 023°37'0 0.0
2017-Sep-12 08:31N 37°57' E 023°37'0 0.0
2017-Sep-12 08:00N 37°57' E 023°37'0 0.0
2017-Sep-12 07:31N 37°57' E 023°37'0 0.0
2017-Sep-12 07:01N 37°57' E 023°37'1 1.5
2017-Sep-12 06:31N 37°57' E 023°36'0 0.8
2017-Sep-12 06:00N 37°57' E 023°36'1 1.6
2017-Sep-12 05:30N 37°57' E 023°37'0 0.0
2017-Sep-12 05:00N 37°57' E 023°37'0 0.0
2017-Sep-12 04:31N 37°57' E 023°37'0 0.0
2017-Sep-12 04:01N 37°57' E 023°37'0 0.0
2017-Sep-12 03:31N 37°57' E 023°37'0 0.0
2017-Sep-12 03:00N 37°57' E 023°37'0 0.0
2017-Sep-12 02:30N 37°57' E 023°37'0 0.0
2017-Sep-12 02:01N 37°57' E 023°37'0 0.0
2017-Sep-12 01:31N 37°57' E 023°37'0 0.0
2017-Sep-12 01:01N 37°57' E 023°37'0 0.0
2017-Sep-12 00:30N 37°57' E 023°37'0 0.0
2017-Sep-12 00:01N 37°57' E 023°37'0 0.0
2017-Sep-11 23:31N 37°57' E 023°37'0 0.0
2017-Sep-11 23:01N 37°57' E 023°37'0 0.0
2017-Sep-11 22:31N 37°57' E 023°37'0 0.0
2017-Sep-11 22:01N 37°57' E 023°37'0 0.0
2017-Sep-11 21:30N 37°57' E 023°37'0 0.0
2017-Sep-11 21:00N 37°57' E 023°37'0 0.0
2017-Sep-11 20:31N 37°57' E 023°37'0 0.0
2017-Sep-11 20:01N 37°57' E 023°37'0 0.0
2017-Sep-11 19:30N 37°57' E 023°37'0 0.0
2017-Sep-11 19:01N 37°57' E 023°37'0 0.0
2017-Sep-11 18:31N 37°57' E 023°37'0 0.0
2017-Sep-11 18:00N 37°57' E 023°37'0 0.0
2017-Sep-11 17:31N 37°57' E 023°37'0 0.0
2017-Sep-11 17:00N 37°57' E 023°37'0 0.0
2017-Sep-11 16:31N 37°57' E 023°37'0 0.0
2017-Sep-11 16:00N 37°57' E 023°37'3 6.7
2017-Sep-11 15:31N 37°59' E 023°33'3 5.8
2017-Sep-11 15:01N 38°01' E 023°35'0 0.0
2017-Sep-11 14:30N 38°01' E 023°35'0 0.0
2017-Sep-11 14:01N 38°01' E 023°35'0 0.0
2017-Sep-11 13:30N 38°01' E 023°35'0 0.0
2017-Sep-11 13:01N 38°01' E 023°35'0 0.0
2017-Sep-11 12:30N 38°01' E 023°35'0 0.0
2017-Sep-11 12:00N 38°01' E 023°36'0 0.0
2017-Sep-11 11:31N 38°01' E 023°36'0 0.0
2017-Sep-11 11:01N 38°01' E 023°35'0 0.0
2017-Sep-11 10:30N 38°01' E 023°35'0 0.0
2017-Sep-11 10:00N 38°01' E 023°35'0 0.0
2017-Sep-11 09:30N 38°01' E 023°35'0 0.0
2017-Sep-11 09:00N 38°01' E 023°35'0 0.0
2017-Sep-11 08:30N 38°01' E 023°35'0 0.0
2017-Sep-11 08:01N 38°01' E 023°35'0 0.5
2017-Sep-11 07:31N 38°02' E 023°36'3 5.1
2017-Sep-11 07:01N 38°02' E 023°33'2 3.5
2017-Sep-11 06:30N 38°00' E 023°33'4 7.2
2017-Sep-11 06:00N 37°57' E 023°36'1 1.5
2017-Sep-11 05:31N 37°57' E 023°37'0 0.5
2017-Sep-11 05:00N 37°57' E 023°36'0 0.4
2017-Sep-11 04:30N 37°57' E 023°37'0 0.0
2017-Sep-11 04:01N 37°57' E 023°37'0 0.0
2017-Sep-11 03:31N 37°57' E 023°37'0 0.0
2017-Sep-11 03:00N 37°57' E 023°37'0 0.0
2017-Sep-11 02:30N 37°57' E 023°37'0 0.0
2017-Sep-11 02:01N 37°57' E 023°37'0 0.0
2017-Sep-11 01:31N 37°57' E 023°37'0 0.0
2017-Sep-11 01:00N 37°57' E 023°37'0 0.0
2017-Sep-11 00:31N 37°57' E 023°37'0 0.0
2017-Sep-11 00:00N 37°57' E 023°37'0 0.0
2017-Sep-10 23:30N 37°57' E 023°37'0 0.0
2017-Sep-10 23:00N 37°57' E 023°37'0 0.0
2017-Sep-10 22:31N 37°57' E 023°37'0 0.0
2017-Sep-10 22:01N 37°57' E 023°37'0 0.0
2017-Sep-10 21:30N 37°57' E 023°37'0 0.0
2017-Sep-10 21:01N 37°57' E 023°37'  
Track history (hours):
 
Tides and Currents Weather Stations Pressure Air Temp Water Temp Dewpoint Dewpoint Depression Visibility Wind Speed Wind Dir Waves Ship Positions

Ifestos 3

Last reported at 2017-Sep-20 21:00 UTC. Time now 2017-Sep-20 23:54 UTC.
Position N 37°57' E 023°37'.

Length 30 m; draft 2.9 m.

Type: Tug. MMSI: 240612000.

Date/timePositionNaut miles runAvg speedWind from/ knotsBaromVisibWave heightAir tempDewpointWater temp
2017-Sep-20 21:00N 37°57' E 023°37'0 0.0
2017-Sep-20 20:30N 37°57' E 023°37'0 0.0
2017-Sep-20 20:00N 37°57' E 023°37'0 0.0
2017-Sep-20 19:30N 37°57' E 023°37'0 0.0
2017-Sep-20 19:00N 37°57' E 023°37'0 0.0
2017-Sep-20 18:30N 37°57' E 023°37'0 0.0
2017-Sep-20 18:00N 37°57' E 023°37'0 0.0
2017-Sep-20 17:31N 37°57' E 023°37'0 0.0
2017-Sep-20 17:00N 37°57' E 023°37'0 0.0
2017-Sep-20 16:30N 37°57' E 023°37'0 0.0
2017-Sep-20 16:01N 37°57' E 023°37'0 0.0
2017-Sep-20 15:30N 37°57' E 023°37'0 0.0
2017-Sep-20 15:00N 37°57' E 023°37'0 0.0
2017-Sep-20 14:01N 37°57' E 023°37'0 0.0
2017-Sep-20 13:30N 37°57' E 023°37'0 0.0
2017-Sep-20 13:01N 37°57' E 023°37'0 0.0
2017-Sep-20 12:31N 37°57' E 023°37'0 0.0
2017-Sep-20 12:00N 37°57' E 023°37'0 0.0
2017-Sep-20 11:30N 37°57' E 023°37'0 0.0
2017-Sep-20 11:00N 37°57' E 023°37'0 0.0
2017-Sep-20 10:30N 37°57' E 023°37'0 0.0
2017-Sep-20 10:00N 37°57' E 023°37'0 0.0
2017-Sep-20 09:31N 37°57' E 023°37'0 0.0
2017-Sep-20 09:00N 37°57' E 023°37'0 0.0
2017-Sep-20 08:30N 37°57' E 023°37'0 0.0
2017-Sep-20 08:00N 37°57' E 023°37'0 0.0
2017-Sep-20 07:31N 37°57' E 023°37'0 0.0
2017-Sep-20 07:00N 37°57' E 023°37'0 0.0
2017-Sep-20 06:30N 37°57' E 023°37'0 0.0
2017-Sep-20 06:00N 37°57' E 023°37'0 0.0
2017-Sep-20 05:30N 37°57' E 023°37'0 0.0
2017-Sep-20 05:00N 37°57' E 023°37'0 0.0
2017-Sep-20 04:30N 37°57' E 023°37'0 0.0
2017-Sep-20 04:01N 37°57' E 023°37'0 0.0
2017-Sep-20 03:31N 37°57' E 023°37'0 0.0
2017-Sep-20 03:00N 37°57' E 023°37'0 0.0
2017-Sep-20 02:30N 37°57' E 023°37'0 0.0
2017-Sep-20 02:00N 37°57' E 023°37'0 0.0
2017-Sep-20 01:30N 37°57' E 023°37'0 0.0
2017-Sep-20 01:00N 37°57' E 023°37'0 0.0
2017-Sep-20 00:30N 37°57' E 023°37'0 0.0
2017-Sep-20 00:01N 37°57' E 023°37'0 0.0
2017-Sep-19 23:30N 37°57' E 023°37'0 0.0
2017-Sep-19 23:01N 37°57' E 023°37'0 0.0
2017-Sep-19 22:30N 37°57' E 023°37'0 0.0
2017-Sep-19 22:00N 37°57' E 023°37'0 0.0
2017-Sep-19 21:30N 37°57' E 023°37'0 0.0
2017-Sep-19 21:00N 37°57' E 023°37'0 0.0
2017-Sep-19 20:30N 37°57' E 023°37'0 0.0
2017-Sep-19 20:01N 37°57' E 023°37'0 0.0
2017-Sep-19 19:30N 37°57' E 023°37'0 0.0
2017-Sep-19 19:00N 37°57' E 023°37'0 0.8
2017-Sep-19 18:31N 37°57' E 023°36'0 0.6
2017-Sep-19 18:01N 37°57' E 023°36'1 1.6
2017-Sep-19 17:30N 37°57' E 023°36'1 1.3
2017-Sep-19 17:00N 37°57' E 023°36'0 0.9
2017-Sep-19 16:30N 37°57' E 023°37'0 0.0
2017-Sep-19 16:00N 37°57' E 023°37'0 0.0
2017-Sep-19 15:30N 37°57' E 023°37'0 0.0
2017-Sep-19 15:00N 37°57' E 023°37'0 0.0
2017-Sep-19 14:30N 37°57' E 023°37'0 0.0
2017-Sep-19 14:00N 37°57' E 023°37'0 0.0
2017-Sep-19 13:30N 37°57' E 023°37'0 0.0
2017-Sep-19 13:00N 37°57' E 023°37'0 0.0
2017-Sep-19 12:30N 37°57' E 023°37'1 1.2
2017-Sep-19 12:00N 37°57' E 023°36'1 1.1
2017-Sep-19 11:30N 37°57' E 023°35'2 3.8
2017-Sep-19 11:00N 37°58' E 023°33'2 3.8
2017-Sep-19 10:30N 37°60' E 023°34'0 0.4
2017-Sep-19 10:00N 37°60' E 023°34'1 2.1
2017-Sep-19 09:29N 38°01' E 023°33'2 3.4
2017-Sep-19 09:00N 38°02' E 023°32'0 0.0
2017-Sep-19 08:31N 38°02' E 023°32'0 0.8
2017-Sep-19 08:00N 38°02' E 023°32'510.3
2017-Sep-19 07:30N 37°57' E 023°34'2 4.3
2017-Sep-19 07:00N 37°57' E 023°37'0 0.0
2017-Sep-19 06:30N 37°57' E 023°37'1 1.7
2017-Sep-19 06:00N 37°57' E 023°36'1 2.3
2017-Sep-19 05:30N 37°56' E 023°36'2 3.3
2017-Sep-19 05:00N 37°57' E 023°37'0 0.0
2017-Sep-19 04:30N 37°57' E 023°37'0 0.0
2017-Sep-19 04:00N 37°57' E 023°37'0 0.0
2017-Sep-19 03:30N 37°57' E 023°37'0 0.0
2017-Sep-19 03:00N 37°57' E 023°37'0 0.0
2017-Sep-19 02:30N 37°57' E 023°37'0 0.0
2017-Sep-19 02:00N 37°57' E 023°37'0 0.0
2017-Sep-19 01:31N 37°57' E 023°37'0 0.0
2017-Sep-19 01:01N 37°57' E 023°37'0 0.0
2017-Sep-19 00:30N 37°57' E 023°37'0 0.0
2017-Sep-19 00:00N 37°57' E 023°37'0 0.0
2017-Sep-18 23:30N 37°57' E 023°37'0 0.0
2017-Sep-18 23:00N 37°57' E 023°37'0 0.0
2017-Sep-18 22:30N 37°57' E 023°37'0 0.0
2017-Sep-18 22:00N 37°57' E 023°37'0 0.0
2017-Sep-18 21:30N 37°57' E 023°37'0 0.0
2017-Sep-18 21:00N 37°57' E 023°37'0 0.0
2017-Sep-18 20:31N 37°57' E 023°37'0 0.0
2017-Sep-18 20:00N 37°57' E 023°37'0 0.0
2017-Sep-18 19:30N 37°57' E 023°37'0 0.0
2017-Sep-18 19:00N 37°57' E 023°37'0 0.0
2017-Sep-18 18:31N 37°57' E 023°37'0 0.0
2017-Sep-18 18:00N 37°57' E 023°37'0 0.0
2017-Sep-18 17:30N 37°57' E 023°37'0 0.0
2017-Sep-18 17:00N 37°57' E 023°37'0 0.0
2017-Sep-18 16:30N 37°57' E 023°37'0 0.0
2017-Sep-18 16:00N 37°57' E 023°37'0 0.0
2017-Sep-18 15:31N 37°57' E 023°37'0 0.0
2017-Sep-18 15:00N 37°57' E 023°37'0 0.0
2017-Sep-18 14:31N 37°57' E 023°37'0 0.0
2017-Sep-18 14:00N 37°57' E 023°37'0 0.0
2017-Sep-18 13:30N 37°57' E 023°37'0 0.0
2017-Sep-18 13:00N 37°57' E 023°37'0 0.0
2017-Sep-18 12:30N 37°57' E 023°37'0 0.0
2017-Sep-18 12:00N 37°57' E 023°37'0 0.0
2017-Sep-18 11:30N 37°57' E 023°37'0 0.6
2017-Sep-18 11:00N 37°57' E 023°36'0 1.0
2017-Sep-18 10:30N 37°57' E 023°36'0 0.4
2017-Sep-18 10:01N 37°57' E 023°36'1 1.1
2017-Sep-18 09:30N 37°57' E 023°37'0 0.0
2017-Sep-18 09:00N 37°57' E 023°37'0 0.0
2017-Sep-18 08:30N 37°57' E 023°37'0 0.0
2017-Sep-18 08:01N 37°57' E 023°37'0 0.0
2017-Sep-18 07:30N 37°57' E 023°37'0 0.0
2017-Sep-18 07:00N 37°57' E 023°37'0 0.0
2017-Sep-18 06:30N 37°57' E 023°37'0 0.0
2017-Sep-18 06:00N 37°57' E 023°37'0 0.6
2017-Sep-18 05:30N 37°58' E 023°36'0 0.8
2017-Sep-18 05:00N 37°57' E 023°36'1 2.0
2017-Sep-18 04:30N 37°56' E 023°36'1 2.6
2017-Sep-18 04:01N 37°57' E 023°37'0 0.0
2017-Sep-18 03:30N 37°57' E 023°37'0 0.0
2017-Sep-18 03:00N 37°57' E 023°37'0 0.0
2017-Sep-18 02:30N 37°57' E 023°37'0 0.0
2017-Sep-18 02:00N 37°57' E 023°37'0 0.0
2017-Sep-18 01:30N 37°57' E 023°37'0 0.0
2017-Sep-18 01:00N 37°57' E 023°37'0 0.0
2017-Sep-18 00:30N 37°57' E 023°37'0 0.0
2017-Sep-18 00:00N 37°57' E 023°37'0 0.0
2017-Sep-17 23:30N 37°57' E 023°37'0 0.0
2017-Sep-17 23:00N 37°57' E 023°37'0 0.0
2017-Sep-17 22:31N 37°57' E 023°37'0 0.0
2017-Sep-17 22:00N 37°57' E 023°37'0 0.0
2017-Sep-17 21:30N 37°57' E 023°37'0 0.0
2017-Sep-17 21:00N 37°57' E 023°37'0 0.0
2017-Sep-17 20:30N 37°57' E 023°37'0 0.0
2017-Sep-17 20:00N 37°57' E 023°37'0 0.0
2017-Sep-17 19:30N 37°57' E 023°37'0 0.0
2017-Sep-17 19:01N 37°57' E 023°37'0 0.0
2017-Sep-17 18:30N 37°57' E 023°37'0 0.0
2017-Sep-17 18:01N 37°57' E 023°37'0 0.0
2017-Sep-17 17:30N 37°57' E 023°37'0 0.0
2017-Sep-17 17:00N 37°57' E 023°37'3 5.3
2017-Sep-17 16:30N 37°57' E 023°33'4 8.8
2017-Sep-17 16:00N 38°02' E 023°36'0 0.5
2017-Sep-17 15:30N 38°01' E 023°35'3 6.3
2017-Sep-17 15:00N 37°59' E 023°33'2 3.1
2017-Sep-17 14:30N 37°58' E 023°34'0 0.0
2017-Sep-17 14:00N 37°58' E 023°34'0 0.0
2017-Sep-17 13:31N 37°58' E 023°34'0 0.0
2017-Sep-17 13:00N 37°58' E 023°34'0 0.0
2017-Sep-17 12:31N 37°58' E 023°34'0 0.0
2017-Sep-17 12:00N 37°58' E 023°34'1 2.1
2017-Sep-17 11:30N 37°57' E 023°35'1 2.7
2017-Sep-17 11:01N 37°57' E 023°37'0 0.0
2017-Sep-17 10:31N 37°57' E 023°37'0 0.0
2017-Sep-17 10:00N 37°57' E 023°37'1 2.2
2017-Sep-17 09:30N 37°57' E 023°35'1 1.2
2017-Sep-17 09:00N 37°57' E 023°36'1 1.3
2017-Sep-17 08:30N 37°57' E 023°36'1 1.4
2017-Sep-17 08:00N 37°57' E 023°37'0 0.0
2017-Sep-17 07:31N 37°57' E 023°37'0 0.0
2017-Sep-17 07:00N 37°57' E 023°37'0 0.0
2017-Sep-17 06:30N 37°57' E 023°37'0 0.0
2017-Sep-17 06:00N 37°57' E 023°37'1 1.0
2017-Sep-17 05:30N 37°57' E 023°36'1 1.6
2017-Sep-17 05:01N 37°57' E 023°36'0 1.0
2017-Sep-17 04:30N 37°56' E 023°36'1 1.9
2017-Sep-17 04:00N 37°57' E 023°36'0 0.9
2017-Sep-17 03:30N 37°57' E 023°36'0 0.4
2017-Sep-17 03:00N 37°57' E 023°37'0 0.0
2017-Sep-17 02:30N 37°57' E 023°37'0 0.0
2017-Sep-17 02:00N 37°57' E 023°37'0 0.0
2017-Sep-17 01:30N 37°57' E 023°37'0 0.0
2017-Sep-17 01:00N 37°57' E 023°37'0 0.0
2017-Sep-17 00:30N 37°57' E 023°37'0 0.0
2017-Sep-17 00:00N 37°57' E 023°37'0 0.0
2017-Sep-16 23:31N 37°57' E 023°37'0 0.0
2017-Sep-16 23:01N 37°57' E 023°37'0 0.0
2017-Sep-16 22:30N 37°57' E 023°37'0 0.0
2017-Sep-16 22:01N 37°57' E 023°37'0 0.0
2017-Sep-16 21:30N 37°57' E 023°37'0 0.0
2017-Sep-16 21:01N 37°57' E 023°37'0 0.0
2017-Sep-16 20:31N 37°57' E 023°37'0 0.0
2017-Sep-16 20:00N 37°57' E 023°37'0 0.0
2017-Sep-16 19:31N 37°57' E 023°37'0 0.0
2017-Sep-16 19:00N 37°57' E 023°37'0 0.0
2017-Sep-16 18:30N 37°57' E 023°37'0 0.0
2017-Sep-16 18:00N 37°57' E 023°37'0 0.0
2017-Sep-16 17:30N 37°57' E 023°37'0 0.0
2017-Sep-16 17:01N 37°57' E 023°37'0 0.0
2017-Sep-16 16:31N 37°57' E 023°37'0 0.0
2017-Sep-16 16:00N 37°57' E 023°37'0 0.0
2017-Sep-16 15:30N 37°57' E 023°37'0 0.0
2017-Sep-16 15:01N 37°57' E 023°37'0 0.0
2017-Sep-16 14:30N 37°57' E 023°37'0 0.0
2017-Sep-16 14:01N 37°57' E 023°37'0 0.0
2017-Sep-16 13:30N 37°57' E 023°37'0 0.0
2017-Sep-16 13:00N 37°57' E 023°37'0 0.0
2017-Sep-16 12:30N 37°57' E 023°37'0 0.0
2017-Sep-16 12:00N 37°57' E 023°37'0 0.0
2017-Sep-16 11:30N 37°57' E 023°37'0 0.0
2017-Sep-16 11:00N 37°57' E 023°37'0 0.0
2017-Sep-16 10:30N 37°57' E 023°37'0 0.0
2017-Sep-16 10:01N 37°57' E 023°37'0 0.0
2017-Sep-16 09:31N 37°57' E 023°37'0 0.0
2017-Sep-16 09:00N 37°57' E 023°37'0 0.0
2017-Sep-16 08:30N 37°57' E 023°37'0 0.0
2017-Sep-16 08:00N 37°57' E 023°37'0 0.0
2017-Sep-16 07:30N 37°57' E 023°37'0 0.0
2017-Sep-16 07:01N 37°57' E 023°37'0 0.0
2017-Sep-16 06:30N 37°57' E 023°37'0 0.0
2017-Sep-16 06:00N 37°57' E 023°37'0 0.0
2017-Sep-16 05:31N 37°57' E 023°37'0 0.0
2017-Sep-16 05:01N 37°57' E 023°37'0 0.0
2017-Sep-16 04:30N 37°57' E 023°37'0 0.0
2017-Sep-16 04:00N 37°57' E 023°37'0 0.0
2017-Sep-16 03:30N 37°57' E 023°37'0 0.0
2017-Sep-16 03:00N 37°57' E 023°37'0 0.0
2017-Sep-16 02:31N 37°57' E 023°37'0 0.0
2017-Sep-16 02:00N 37°57' E 023°37'0 0.0
2017-Sep-16 01:30N 37°57' E 023°37'0 0.0
2017-Sep-16 01:00N 37°57' E 023°37'0 0.0
2017-Sep-16 00:30N 37°57' E 023°37'0 0.0
2017-Sep-16 00:00N 37°57' E 023°37'0 0.0
2017-Sep-15 23:31N 37°57' E 023°37'0 0.0
2017-Sep-15 23:00N 37°57' E 023°37'0 0.0
2017-Sep-15 22:30N 37°57' E 023°37'0 0.0
2017-Sep-15 22:00N 37°57' E 023°37'0 0.0
2017-Sep-15 21:30N 37°57' E 023°37'0 0.0
2017-Sep-15 21:00N 37°57' E 023°37'0 0.0
2017-Sep-15 20:31N 37°57' E 023°37'0 0.0
2017-Sep-15 20:01N 37°57' E 023°37'0 0.0
2017-Sep-15 19:30N 37°57' E 023°37'0 0.0
2017-Sep-15 19:00N 37°57' E 023°37'0 0.0
2017-Sep-15 18:30N 37°57' E 023°37'0 0.0
2017-Sep-15 18:00N 37°57' E 023°37'0 0.0
2017-Sep-15 17:30N 37°57' E 023°37'0 0.0
2017-Sep-15 17:00N 37°57' E 023°37'0 0.0
2017-Sep-15 16:30N 37°57' E 023°37'0 0.0
2017-Sep-15 16:00N 37°57' E 023°37'0 0.0
2017-Sep-15 15:30N 37°57' E 023°37'0 0.0
2017-Sep-15 15:00N 37°57' E 023°37'0 0.0
2017-Sep-15 14:31N 37°57' E 023°37'0 0.0
2017-Sep-15 14:00N 37°57' E 023°37'0 0.0
2017-Sep-15 13:31N 37°57' E 023°37'0 0.0
2017-Sep-15 13:00N 37°57' E 023°37'0 0.0
2017-Sep-15 12:30N 37°57' E 023°37'0 0.0
2017-Sep-15 12:00N 37°57' E 023°37'0 0.0
2017-Sep-15 11:30N 37°57' E 023°37'1 1.3
2017-Sep-15 11:00N 37°57' E 023°36'1 1.4
2017-Sep-15 10:30N 37°57' E 023°37'0 0.0
2017-Sep-15 10:01N 37°57' E 023°37'0 0.0
2017-Sep-15 09:30N 37°57' E 023°37'0 0.0
2017-Sep-15 09:01N 37°57' E 023°37'0 0.0
2017-Sep-15 08:31N 37°57' E 023°37'0 0.0
2017-Sep-15 08:00N 37°57' E 023°37'0 0.0
2017-Sep-15 07:30N 37°57' E 023°37'0 0.0
2017-Sep-15 07:00N 37°57' E 023°37'0 0.0
2017-Sep-15 06:30N 37°57' E 023°37'0 0.0
2017-Sep-15 06:01N 37°57' E 023°37'1 2.5
2017-Sep-15 05:31N 37°57' E 023°35'2 3.2
2017-Sep-15 05:01N 37°56' E 023°36'2 3.2
2017-Sep-15 04:30N 37°57' E 023°36'0 0.5
2017-Sep-15 04:00N 37°57' E 023°36'1 1.2
2017-Sep-15 03:30N 37°57' E 023°37'0 0.0
2017-Sep-15 03:01N 37°57' E 023°37'0 0.0
2017-Sep-15 02:30N 37°57' E 023°37'0 0.0
2017-Sep-15 02:00N 37°57' E 023°37'0 0.0
2017-Sep-15 01:31N 37°57' E 023°37'0 0.0
2017-Sep-15 01:00N 37°57' E 023°37'0 0.0
2017-Sep-15 00:30N 37°57' E 023°37'0 0.0
2017-Sep-15 00:00N 37°57' E 023°37'0 0.0
2017-Sep-14 23:30N 37°57' E 023°37'0 0.0
2017-Sep-14 23:00N 37°57' E 023°37'0 0.0
2017-Sep-14 22:30N 37°57' E 023°37'0 0.0
2017-Sep-14 22:00N 37°57' E 023°37'0 0.0
2017-Sep-14 21:31N 37°57' E 023°37'0 0.0
2017-Sep-14 21:00N 37°57' E 023°37'0 0.0
2017-Sep-14 20:30N 37°57' E 023°37'0 0.0
2017-Sep-14 20:00N 37°57' E 023°37'0 0.0
2017-Sep-14 19:30N 37°57' E 023°37'0 0.0
2017-Sep-14 19:01N 37°57' E 023°37'0 0.0
2017-Sep-14 18:30N 37°57' E 023°37'0 0.0
2017-Sep-14 18:01N 37°57' E 023°37'0 0.0
2017-Sep-14 17:30N 37°57' E 023°37'0 0.0
2017-Sep-14 17:00N 37°57' E 023°37'0 0.0
2017-Sep-14 16:31N 37°57' E 023°37'0 0.0
2017-Sep-14 16:01N 37°57' E 023°37'2 3.4
2017-Sep-14 15:30N 37°57' E 023°34'3 5.4
2017-Sep-14 15:00N 37°60' E 023°33'3 5.3
2017-Sep-14 14:30N 38°02' E 023°36'0 0.4
2017-Sep-14 14:00N 38°01' E 023°36'0 0.0
2017-Sep-14 13:30N 38°01' E 023°36'0 0.0
2017-Sep-14 13:00N 38°01' E 023°36'0 0.0
2017-Sep-14 12:30N 38°01' E 023°36'0 0.0
2017-Sep-14 12:00N 38°01' E 023°36'0 0.0
2017-Sep-14 11:30N 38°01' E 023°36'0 0.0
2017-Sep-14 11:01N 38°01' E 023°36'0 0.0
2017-Sep-14 10:30N 38°01' E 023°36'0 0.0
2017-Sep-14 10:01N 38°01' E 023°36'0 0.0
2017-Sep-14 09:30N 38°01' E 023°36'0 0.0
2017-Sep-14 09:00N 38°01' E 023°36'0 0.0
2017-Sep-14 08:30N 38°01' E 023°36'0 0.0
2017-Sep-14 08:00N 38°01' E 023°36'0 0.0
2017-Sep-14 07:31N 38°01' E 023°36'0 0.0
2017-Sep-14 07:00N 38°01' E 023°36'0 0.0
2017-Sep-14 06:30N 38°01' E 023°36'0 0.0
2017-Sep-14 06:00N 38°01' E 023°36'0 0.0
2017-Sep-14 05:31N 38°01' E 023°36'0 0.0
2017-Sep-14 05:01N 38°01' E 023°36'0 0.0
2017-Sep-14 04:31N 38°01' E 023°36'0 0.0
2017-Sep-14 04:00N 38°01' E 023°36'0 0.0
2017-Sep-14 03:31N 38°01' E 023°36'0 0.0
2017-Sep-14 03:01N 38°01' E 023°36'0 0.0
2017-Sep-14 02:30N 38°01' E 023°36'0 0.0
2017-Sep-14 02:01N 38°01' E 023°36'0 0.0
2017-Sep-14 01:31N 38°01' E 023°36'0 0.0
2017-Sep-14 01:00N 38°01' E 023°36'0 0.0
2017-Sep-14 00:31N 38°01' E 023°36'0 0.0
2017-Sep-14 00:01N 38°01' E 023°36'0 0.0
2017-Sep-13 23:30N 38°01' E 023°36'0 0.0
2017-Sep-13 23:00N 38°01' E 023°36'0 0.0
2017-Sep-13 22:30N 38°01' E 023°36'0 0.0
2017-Sep-13 22:00N 38°01' E 023°36'0 0.0
2017-Sep-13 21:31N 38°01' E 023°36'0 0.0
2017-Sep-13 21:01N 38°01' E 023°36'0 0.0
2017-Sep-13 20:30N 38°01' E 023°36'0 0.0
2017-Sep-13 20:00N 38°01' E 023°36'0 0.0
2017-Sep-13 19:28N 38°01' E 023°36'0 0.0
2017-Sep-13 18:55N 38°01' E 023°36'0 0.0
2017-Sep-13 18:30N 38°01' E 023°36'0 0.0
2017-Sep-13 18:01N 38°01' E 023°36'0 0.0
2017-Sep-13 17:30N 38°01' E 023°36'0 0.0
2017-Sep-13 17:01N 38°01' E 023°36'0 0.0
2017-Sep-13 16:30N 38°01' E 023°36'0 0.0
2017-Sep-13 16:00N 38°01' E 023°36'0 0.0
2017-Sep-13 15:31N 38°01' E 023°36'0 0.0
2017-Sep-13 15:01N 38°01' E 023°36'0 0.0
2017-Sep-13 14:31N 38°01' E 023°36'0 0.0
2017-Sep-13 14:01N 38°01' E 023°36'0 0.0
2017-Sep-13 13:30N 38°01' E 023°36'0 0.0
2017-Sep-13 13:01N 38°01' E 023°36'0 0.0
2017-Sep-13 12:31N 38°01' E 023°36'0 0.0
2017-Sep-13 12:00N 38°01' E 023°36'1 2.3
2017-Sep-13 11:31N 38°01' E 023°34'1 2.1
2017-Sep-13 11:00N 37°60' E 023°34'0 0.0
2017-Sep-13 10:31N 37°60' E 023°34'0 0.6
2017-Sep-13 10:01N 37°60' E 023°33'2 4.9
2017-Sep-13 09:31N 38°02' E 023°32'3 5.6
2017-Sep-13 09:01N 38°01' E 023°36'0 0.1
2017-Sep-13 08:30N 38°01' E 023°36'0 0.1
2017-Sep-13 06:37N 38°01' E 023°36'0 0.0
2017-Sep-13 06:22N 38°01' E 023°36'0 0.0
2017-Sep-13 06:01N 38°01' E 023°36'0 0.0
2017-Sep-13 05:30N 38°01' E 023°36'0 0.0
2017-Sep-13 05:01N 38°01' E 023°36'0 0.0
2017-Sep-13 04:30N 38°01' E 023°36'0 0.0
2017-Sep-13 04:01N 38°01' E 023°36'0 0.0
2017-Sep-13 03:30N 38°01' E 023°36'0 0.0
2017-Sep-13 03:00N 38°01' E 023°36'0 0.0
2017-Sep-13 02:30N 38°01' E 023°36'0 0.0
2017-Sep-13 02:00N 38°01' E 023°36'0 0.0
2017-Sep-13 01:30N 38°01' E 023°36'0 0.0
2017-Sep-13 01:00N 38°01' E 023°36'0 0.0
2017-Sep-13 00:30N 38°01' E 023°36'0 0.0
2017-Sep-13 00:01N 38°01' E 023°36'0 0.0
2017-Sep-12 23:30N 38°01' E 023°36'0 0.0
2017-Sep-12 23:00N 38°01' E 023°36'0 0.0
2017-Sep-12 22:30N 38°01' E 023°36'0 0.0
2017-Sep-12 22:01N 38°01' E 023°36'0 0.0
2017-Sep-12 21:31N 38°01' E 023°36'0 0.0
2017-Sep-12 21:01N 38°01' E 023°36'0 0.0
2017-Sep-12 20:31N 38°01' E 023°36'0 0.0
2017-Sep-12 20:01N 38°01' E 023°36'0 0.0
2017-Sep-12 19:30N 38°01' E 023°36'0 0.0
2017-Sep-12 19:00N 38°01' E 023°36'0 0.0
2017-Sep-12 18:30N 38°01' E 023°36'0 0.0
2017-Sep-12 18:01N 38°01' E 023°36'0 0.0
2017-Sep-12 17:31N 38°01' E 023°36'0 0.0
2017-Sep-12 17:00N 38°01' E 023°36'0 0.0
2017-Sep-12 16:31N 38°01' E 023°36'0 0.0
2017-Sep-12 16:00N 38°01' E 023°36'0 0.0
2017-Sep-12 15:30N 38°01' E 023°36'0 0.2
2017-Sep-12 15:01N 38°01' E 023°36'1 1.5
2017-Sep-12 14:30N 38°01' E 023°35'4 7.3
2017-Sep-12 14:00N 37°58' E 023°33'3 5.7
2017-Sep-12 13:30N 37°57' E 023°37'0 0.0
2017-Sep-12 13:00N 37°57' E 023°37'0 0.0
2017-Sep-12 12:30N 37°57' E 023°37'0 0.0
2017-Sep-12 12:00N 37°57' E 023°37'0 0.0
2017-Sep-12 11:30N 37°57' E 023°37'0 0.0
2017-Sep-12 11:01N 37°57' E 023°37'0 0.0
2017-Sep-12 10:30N 37°57' E 023°37'0 0.0
2017-Sep-12 10:01N 37°57' E 023°37'0 0.0
2017-Sep-12 09:31N 37°57' E 023°37'0 0.0
2017-Sep-12 09:01N 37°57' E 023°37'0 0.0
2017-Sep-12 08:31N 37°57' E 023°37'0 0.0
2017-Sep-12 08:00N 37°57' E 023°37'0 0.0
2017-Sep-12 07:31N 37°57' E 023°37'0 0.0
2017-Sep-12 07:01N 37°57' E 023°37'1 1.5
2017-Sep-12 06:31N 37°57' E 023°36'0 0.8
2017-Sep-12 06:00N 37°57' E 023°36'1 1.6
2017-Sep-12 05:30N 37°57' E 023°37'0 0.0
2017-Sep-12 05:00N 37°57' E 023°37'0 0.0
2017-Sep-12 04:31N 37°57' E 023°37'0 0.0
2017-Sep-12 04:01N 37°57' E 023°37'0 0.0
2017-Sep-12 03:31N 37°57' E 023°37'0 0.0
2017-Sep-12 03:00N 37°57' E 023°37'0 0.0
2017-Sep-12 02:30N 37°57' E 023°37'0 0.0
2017-Sep-12 02:01N 37°57' E 023°37'0 0.0
2017-Sep-12 01:31N 37°57' E 023°37'0 0.0
2017-Sep-12 01:01N 37°57' E 023°37'0 0.0
2017-Sep-12 00:30N 37°57' E 023°37'0 0.0
2017-Sep-12 00:01N 37°57' E 023°37'0 0.0
2017-Sep-11 23:31N 37°57' E 023°37'0 0.0
2017-Sep-11 23:01N 37°57' E 023°37'0 0.0
2017-Sep-11 22:31N 37°57' E 023°37'0 0.0
2017-Sep-11 22:01N 37°57' E 023°37'0 0.0
2017-Sep-11 21:30N 37°57' E 023°37'0 0.0
2017-Sep-11 21:00N 37°57' E 023°37'0 0.0
2017-Sep-11 20:31N 37°57' E 023°37'0 0.0
2017-Sep-11 20:01N 37°57' E 023°37'0 0.0
2017-Sep-11 19:30N 37°57' E 023°37'0 0.0
2017-Sep-11 19:01N 37°57' E 023°37'0 0.0
2017-Sep-11 18:31N 37°57' E 023°37'0 0.0
2017-Sep-11 18:00N 37°57' E 023°37'0 0.0
2017-Sep-11 17:31N 37°57' E 023°37'0 0.0
2017-Sep-11 17:00N 37°57' E 023°37'0 0.0
2017-Sep-11 16:31N 37°57' E 023°37'0 0.0
2017-Sep-11 16:00N 37°57' E 023°37'3 6.7
2017-Sep-11 15:31N 37°59' E 023°33'3 5.8
2017-Sep-11 15:01N 38°01' E 023°35'0 0.0
2017-Sep-11 14:30N 38°01' E 023°35'0 0.0
2017-Sep-11 14:01N 38°01' E 023°35'0 0.0
2017-Sep-11 13:30N 38°01' E 023°35'0 0.0
2017-Sep-11 13:01N 38°01' E 023°35'0 0.0
2017-Sep-11 12:30N 38°01' E 023°35'0 0.0
2017-Sep-11 12:00N 38°01' E 023°36'0 0.0
2017-Sep-11 11:31N 38°01' E 023°36'0 0.0
2017-Sep-11 11:01N 38°01' E 023°35'0 0.0
2017-Sep-11 10:30N 38°01' E 023°35'0 0.0
2017-Sep-11 10:00N 38°01' E 023°35'0 0.0
2017-Sep-11 09:30N 38°01' E 023°35'0 0.0
2017-Sep-11 09:00N 38°01' E 023°35'0 0.0
2017-Sep-11 08:30N 38°01' E 023°35'0 0.0
2017-Sep-11 08:01N 38°01' E 023°35'0 0.5
2017-Sep-11 07:31N 38°02' E 023°36'3 5.1
2017-Sep-11 07:01N 38°02' E 023°33'2 3.5
2017-Sep-11 06:30N 38°00' E 023°33'4 7.2
2017-Sep-11 06:00N 37°57' E 023°36'1 1.5
2017-Sep-11 05:31N 37°57' E 023°37'0 0.5
2017-Sep-11 05:00N 37°57' E 023°36'0 0.4
2017-Sep-11 04:30N 37°57' E 023°37'0 0.0
2017-Sep-11 04:01N 37°57' E 023°37'0 0.0
2017-Sep-11 03:31N 37°57' E 023°37'0 0.0
2017-Sep-11 03:00N 37°57' E 023°37'0 0.0
2017-Sep-11 02:30N 37°57' E 023°37'0 0.0
2017-Sep-11 02:01N 37°57' E 023°37'0 0.0
2017-Sep-11 01:31N 37°57' E 023°37'0 0.0
2017-Sep-11 01:00N 37°57' E 023°37'0 0.0
2017-Sep-11 00:31N 37°57' E 023°37'0 0.0
2017-Sep-11 00:00N 37°57' E 023°37'0 0.0
2017-Sep-10 23:30N 37°57' E 023°37'0 0.0
2017-Sep-10 23:00N 37°57' E 023°37'0 0.0
2017-Sep-10 22:31N 37°57' E 023°37'0 0.0
2017-Sep-10 22:01N 37°57' E 023°37'0 0.0
2017-Sep-10 21:30N 37°57' E 023°37'0 0.0
2017-Sep-10 21:01N 37°57' E 023°37'  

Dump ship's entire track history